Hauptseite
METAR-TAF:

METAR-TAF

Flughäfen :

Altenburg, Deutschland

Leipzig-Altenburg Airport

Breite: 50-58N, Länge: 012-30E, Höhe: 195 m

Beobachtung

Neuester Wetterbericht von vor 13 Minuten, um 11:20 UTC
Wind 6 kt aus Nordwest
Temperatur 10°C
Luftfeuchtigkeit 76%
Luftdruck 1029 hPa
Sichtweite 10 km oder mehr
keine Wolken unter 1500 m und keine Kumulonimbus oder Gewitterwolken

METAR: EDAC 251120Z 32006KT CAVOK 10/06 Q1029

Zeit: 12:33 (11:33 UTC)

Prognose

Neuester Wetterbericht von vor 2 Stunden und 8 Minuten, um 09:25 UTC
Gültige Prognose vom 25 um 10 UTC bis 25 um 18 UTC
Wind 3 kt aus West/Nordwest
Sichtweite 10 km oder mehr
keine Wolken unter 1500 m und keine Kumulonimbus oder Gewitterwolken
Übergehend zu
vom 25 um 10 UTC bis 25 um 13 UTC
Wind 6 kt aus Nord

TAF: EDAC 250925Z 2510/2518 30003KT CAVOK BECMG 2510/2513 36006KT

Wetterbeobachtungen und Prognosen von mehr als 4000 Flughäfen (METAR und TAF Bericht).

Die verfügbaren Stationen werden durch gelbe und rote Markierungen auf der Karte dargestellt.

Führen Sie die Maus auf sie, um den Namen der Station zu sehen.

Darauf klicken, um die Beobachtung von Wetterbeobachtungen und Prognosen zu sehen.

Um die Karte zu ändern : klicken Sie auf den grünen Tasten mit einem schwarzen Kreuz Zum Vergrößern, auf den grünen Button mit einem Gedankenstrich zu verkleinern, oder auf die grünen Pfeile für benachbarte Karten.


METAR-TAF: